sensor_id;sensor_type;location;lat;lon;timestamp;pressure;altitude;pressure_sealevel;temperature;humidity
11692;BME280;33659;42.672;23.354;2023-06-14T00:00:09;68945.09;;;18.28;89.84
11692;BME280;33659;42.672;23.354;2023-06-14T00:02:38;68949.13;;;18.36;90.09
11692;BME280;33659;42.672;23.354;2023-06-14T00:05:07;68939.31;;;18.27;89.55
11692;BME280;33659;42.672;23.354;2023-06-14T00:07:35;68958.16;;;18.40;89.38
11692;BME280;33659;42.672;23.354;2023-06-14T00:10:02;68962.63;;;18.47;88.99
11692;BME280;33659;42.672;23.354;2023-06-14T00:12:30;68895.56;;;18.50;88.85
11692;BME280;33659;42.672;23.354;2023-06-14T00:14:57;68974.50;;;18.55;88.94
11692;BME280;33659;42.672;23.354;2023-06-14T00:17:23;68971.44;;;18.57;88.64
11692;BME280;33659;42.672;23.354;2023-06-14T00:19:55;68975.78;;;18.61;88.32
11692;BME280;33659;42.672;23.354;2023-06-14T00:22:24;68985.59;;;18.71;87.74
11692;BME280;33659;42.672;23.354;2023-06-14T00:24:50;68994.22;;;18.76;87.39
11692;BME280;33659;42.672;23.354;2023-06-14T00:27:17;69000.22;;;18.82;86.17
11692;BME280;33659;42.672;23.354;2023-06-14T00:29:44;68999.66;;;18.81;86.05
11692;BME280;33659;42.672;23.354;2023-06-14T00:32:11;68998.13;;;18.82;85.89
11692;BME280;33659;42.672;23.354;2023-06-14T00:34:38;68998.13;;;18.82;85.58
11692;BME280;33659;42.672;23.354;2023-06-14T00:37:05;68996.41;;;18.78;85.49
11692;BME280;33659;42.672;23.354;2023-06-14T00:39:33;68981.13;;;18.64;85.49
11692;BME280;33659;42.672;23.354;2023-06-14T00:42:00;68991.50;;;18.74;86.43
11692;BME280;33659;42.672;23.354;2023-06-14T00:44:27;68993.13;;;18.75;86.45
11692;BME280;33659;42.672;23.354;2023-06-14T00:46:54;68993.69;;;18.76;86.44
11692;BME280;33659;42.672;23.354;2023-06-14T00:49:21;69000.66;;;18.80;86.24
11692;BME280;33659;42.672;23.354;2023-06-14T00:51:48;68995.41;;;18.80;86.46
11692;BME280;33659;42.672;23.354;2023-06-14T00:54:15;68928.75;;;18.81;86.30
11692;BME280;33659;42.672;23.354;2023-06-14T00:56:43;69001.28;;;18.83;85.63
11692;BME280;33659;42.672;23.354;2023-06-14T00:59:10;69002.94;;;18.84;85.51
11692;BME280;33659;42.672;23.354;2023-06-14T01:01:37;68999.13;;;18.81;85.23
11692;BME280;33659;42.672;23.354;2023-06-14T01:04:04;68996.94;;;18.79;84.80
11692;BME280;33659;42.672;23.354;2023-06-14T01:06:38;68990.94;;;18.73;84.52
11692;BME280;33659;42.672;23.354;2023-06-14T01:09:15;68985.53;;;18.68;84.86
11692;BME280;33659;42.672;23.354;2023-06-14T01:11:51;68983.44;;;18.69;85.31
11692;BME280;33659;42.672;23.354;2023-06-14T01:14:21;68986.06;;;18.69;85.54
11692;BME280;33659;42.672;23.354;2023-06-14T01:16:48;68989.84;;;18.72;85.72
11692;BME280;33659;42.672;23.354;2023-06-14T01:19:19;68994.22;;;18.76;85.83
11692;BME280;33659;42.672;23.354;2023-06-14T01:21:48;68980.06;;;18.63;85.84
11692;BME280;33659;42.672;23.354;2023-06-14T01:24:17;69002.94;;;18.84;85.73
11692;BME280;33659;42.672;23.354;2023-06-14T01:26:49;68933.63;;;18.86;86.17
11692;BME280;33659;42.672;23.354;2023-06-14T01:29:17;69007.28;;;18.88;86.10
11692;BME280;33659;42.672;23.354;2023-06-14T01:31:44;69011.63;;;18.92;86.06
11692;BME280;33659;42.672;23.354;2023-06-14T01:34:12;69019.72;;;18.98;86.31
11692;BME280;33659;42.672;23.354;2023-06-14T01:36:41;69019.72;;;18.98;86.45
11692;BME280;33659;42.672;23.354;2023-06-14T01:39:10;69020.91;;;19.01;86.24
11692;BME280;33659;42.672;23.354;2023-06-14T01:41:39;68948.88;;;19.00;86.29
11692;BME280;33659;42.672;23.354;2023-06-14T01:44:06;69021.44;;;19.02;86.06
11692;BME280;33659;42.672;23.354;2023-06-14T01:46:33;69026.25;;;19.04;86.02
11692;BME280;33659;42.672;23.354;2023-06-14T01:49:00;69025.25;;;19.05;85.87
11692;BME280;33659;42.672;23.354;2023-06-14T01:51:27;68950.03;;;19.04;85.88
11692;BME280;33659;42.672;23.354;2023-06-14T01:53:54;68954.31;;;19.05;86.10
11692;BME280;33659;42.672;23.354;2023-06-14T01:56:21;69022.53;;;19.03;86.07
11692;BME280;33659;42.672;23.354;2023-06-14T01:58:49;69019.91;;;19.03;85.76
11692;BME280;33659;42.672;23.354;2023-06-14T02:01:17;69017.09;;;18.98;85.76
11692;BME280;33659;42.672;23.354;2023-06-14T02:03:44;69012.09;;;18.90;85.56
11692;BME280;33659;42.672;23.354;2023-06-14T02:06:11;69006.84;;;18.90;85.67
11692;BME280;33659;42.672;23.354;2023-06-14T02:08:39;69004.56;;;18.86;85.49
11692;BME280;33659;42.672;23.354;2023-06-14T02:11:05;69000.22;;;18.82;85.31
11692;BME280;33659;42.672;23.354;2023-06-14T02:13:32;68996.84;;;18.76;85.35
11692;BME280;33659;42.672;23.354;2023-06-14T02:16:01;68983.44;;;18.69;85.82
11692;BME280;33659;42.672;23.354;2023-06-14T02:18:28;68971.34;;;18.55;86.49
11692;BME280;33659;42.672;23.354;2023-06-14T02:20:55;68958.28;;;18.43;87.03
11692;BME280;33659;42.672;23.354;2023-06-14T02:23:22;68884.59;;;18.37;87.60
11692;BME280;33659;42.672;23.354;2023-06-14T02:25:49;68950.22;;;18.37;87.73
11692;BME280;33659;42.672;23.354;2023-06-14T02:28:15;68937.16;;;18.25;88.15
11692;BME280;33659;42.672;23.354;2023-06-14T02:30:42;68937.06;;;18.23;88.28
11692;BME280;33659;42.672;23.354;2023-06-14T02:33:10;68933.88;;;18.22;88.58
11692;BME280;33659;42.672;23.354;2023-06-14T02:35:38;68936.94;;;18.20;88.63
11692;BME280;33659;42.672;23.354;2023-06-14T02:38:04;68927.91;;;18.17;89.07
11692;BME280;33659;42.672;23.354;2023-06-14T02:40:31;68928.44;;;18.17;89.23
11692;BME280;33659;42.672;23.354;2023-06-14T02:42:58;68932.78;;;18.21;89.48
11692;BME280;33659;42.672;23.354;2023-06-14T02:45:25;68934.31;;;18.20;89.12
11692;BME280;33659;42.672;23.354;2023-06-14T02:47:51;68937.59;;;18.23;89.03
11692;BME280;33659;42.672;23.354;2023-06-14T02:50:20;68937.06;;;18.23;88.84
11692;BME280;33659;42.672;23.354;2023-06-14T02:52:49;68939.22;;;18.25;89.05
11692;BME280;33659;42.672;23.354;2023-06-14T02:55:16;68941.50;;;18.29;88.76
11692;BME280;33659;42.672;23.354;2023-06-14T02:57:42;68945.84;;;18.33;88.37
11692;BME280;33659;42.672;23.354;2023-06-14T03:00:10;68947.38;;;18.32;88.66
11692;BME280;33659;42.672;23.354;2023-06-14T03:02:38;68949.13;;;18.36;88.35
11692;BME280;33659;42.672;23.354;2023-06-14T03:05:06;68950.84;;;18.40;88.26
11692;BME280;33659;42.672;23.354;2023-06-14T03:07:35;68883.69;;;18.41;88.09
11692;BME280;33659;42.672;23.354;2023-06-14T03:10:07;68960.53;;;18.47;87.54
11692;BME280;33659;42.672;23.354;2023-06-14T03:12:34;68965.34;;;18.49;87.06
11692;BME280;33659;42.672;23.354;2023-06-14T03:15:02;68968.72;;;18.55;86.84
11692;BME280;33659;42.672;23.354;2023-06-14T03:17:29;68972.97;;;18.56;86.53
11692;BME280;33659;42.672;23.354;2023-06-14T03:19:58;68974.59;;;18.58;86.30
11692;BME280;33659;42.672;23.354;2023-06-14T03:22:25;68977.97;;;18.63;85.68
11692;BME280;33659;42.672;23.354;2023-06-14T03:24:55;68970.78;;;18.54;85.46
11692;BME280;33659;42.672;23.354;2023-06-14T03:27:21;68974.78;;;18.63;84.95
11692;BME280;33659;42.672;23.354;2023-06-14T03:29:48;68906.53;;;18.63;84.79
11692;BME280;33659;42.672;23.354;2023-06-14T03:32:15;68976.22;;;18.59;84.80
11692;BME280;33659;42.672;23.354;2023-06-14T03:34:42;68977.84;;;18.61;84.71
11692;BME280;33659;42.672;23.354;2023-06-14T03:37:10;68973.59;;;18.59;84.57
11692;BME280;33659;42.672;23.354;2023-06-14T03:39:37;68976.78;;;18.60;84.48
11692;BME280;33659;42.672;23.354;2023-06-14T03:42:12;68966.53;;;18.53;84.48
11692;BME280;33659;42.672;23.354;2023-06-14T03:44:39;68957.81;;;18.45;85.02
11692;BME280;33659;42.672;23.354;2023-06-14T03:47:06;68955.00;;;18.39;85.47
11692;BME280;33659;42.672;23.354;2023-06-14T03:49:33;68944.22;;;18.32;85.82
11692;BME280;33659;42.672;23.354;2023-06-14T03:52:00;68938.16;;;18.24;86.29
11692;BME280;33659;42.672;23.354;2023-06-14T03:54:27;68930.63;;;18.19;86.86
11692;BME280;33659;42.672;23.354;2023-06-14T03:56:54;68932.16;;;18.18;86.90
11692;BME280;33659;42.672;23.354;2023-06-14T03:59:23;68929.53;;;18.18;87.25
11692;BME280;33659;42.672;23.354;2023-06-14T04:01:51;68912.66;;;18.02;87.65
11692;BME280;33659;42.672;23.354;2023-06-14T04:04:18;68936.94;;;18.20;87.45
11692;BME280;33659;42.672;23.354;2023-06-14T04:06:46;68935.53;;;18.24;88.05
11692;BME280;33659;42.672;23.354;2023-06-14T04:09:13;68939.31;;;18.27;87.73
11692;BME280;33659;42.672;23.354;2023-06-14T04:11:40;68945.31;;;18.33;88.45
11692;BME280;33659;42.672;23.354;2023-06-14T04:14:07;68957.75;;;18.42;88.40
11692;BME280;33659;42.672;23.354;2023-06-14T04:16:35;68946.38;;;18.34;88.42
11692;BME280;33659;42.672;23.354;2023-06-14T04:19:01;68960.53;;;18.47;87.91
11692;BME280;33659;42.672;23.354;2023-06-14T04:21:28;68900.47;;;18.55;87.27
11692;BME280;33659;42.672;23.354;2023-06-14T04:23:55;68911.44;;;18.67;87.01
11692;BME280;33659;42.672;23.354;2023-06-14T04:26:22;68990.94;;;18.73;86.56
11692;BME280;33659;42.672;23.354;2023-06-14T04:28:55;68992.13;;;18.77;86.04
11692;BME280;33659;42.672;23.354;2023-06-14T04:31:22;68934.09;;;18.84;85.96
11692;BME280;33659;42.672;23.354;2023-06-14T04:33:51;69016.53;;;18.97;85.57
11692;BME280;33659;42.672;23.354;2023-06-14T04:36:19;69029.06;;;19.09;84.97
11692;BME280;33659;42.672;23.354;2023-06-14T04:38:46;69037.78;;;19.17;83.72
11692;BME280;33659;42.672;23.354;2023-06-14T04:41:14;68976.63;;;19.26;83.51
11692;BME280;33659;42.672;23.354;2023-06-14T04:43:41;68986.94;;;19.36;83.13
11692;BME280;33659;42.672;23.354;2023-06-14T04:46:08;69065.53;;;19.43;82.67
11692;BME280;33659;42.672;23.354;2023-06-14T04:48:36;69072.63;;;19.49;81.65
11692;BME280;33659;42.672;23.354;2023-06-14T04:51:07;69071.00;;;19.48;80.89
11692;BME280;33659;42.672;23.354;2023-06-14T04:53:34;69072.06;;;19.49;81.32
11692;BME280;33659;42.672;23.354;2023-06-14T04:56:02;69006.53;;;19.54;80.95
11692;BME280;33659;42.672;23.354;2023-06-14T04:58:29;69078.72;;;19.58;80.27
11692;BME280;33659;42.672;23.354;2023-06-14T05:00:57;69086.81;;;19.63;79.96
11692;BME280;33659;42.672;23.354;2023-06-14T05:03:24;69090.16;;;19.68;80.10
11692;BME280;33659;42.672;23.354;2023-06-14T05:05:52;69097.78;;;19.75;80.07
11692;BME280;33659;42.672;23.354;2023-06-14T05:08:20;69107.50;;;19.82;79.53
11692;BME280;33659;42.672;23.354;2023-06-14T05:10:49;69108.03;;;19.83;78.86
11692;BME280;33659;42.672;23.354;2023-06-14T05:13:15;69110.69;;;19.83;79.33
11692;BME280;33659;42.672;23.354;2023-06-14T05:15:42;69109.69;;;19.84;79.83
11692;BME280;33659;42.672;23.354;2023-06-14T05:18:09;69114.03;;;19.88;79.66
11692;BME280;33659;42.672;23.354;2023-06-14T05:20:36;69108.03;;;19.83;79.53
11692;BME280;33659;42.672;23.354;2023-06-14T05:23:03;69110.78;;;19.85;80.24
11692;BME280;33659;42.672;23.354;2023-06-14T05:25:31;69111.94;;;19.89;79.45
11692;BME280;33659;42.672;23.354;2023-06-14T05:27:58;69112.41;;;19.87;78.62
11692;BME280;33659;42.672;23.354;2023-06-14T05:30:25;69110.78;;;19.85;78.17
11692;BME280;33659;42.672;23.354;2023-06-14T05:32:52;69102.69;;;19.80;78.27
11692;BME280;33659;42.672;23.354;2023-06-14T05:35:20;69095.06;;;19.73;78.73
11692;BME280;33659;42.672;23.354;2023-06-14T05:37:48;69095.63;;;19.73;79.14
11692;BME280;33659;42.672;23.354;2023-06-14T05:40:15;69111.22;;;19.83;79.17
11692;BME280;33659;42.672;23.354;2023-06-14T05:42:44;69114.16;;;19.91;79.58
11692;BME280;33659;42.672;23.354;2023-06-14T05:45:11;69120.69;;;19.97;79.53
11692;BME280;33659;42.672;23.354;2023-06-14T05:47:38;69133.66;;;20.07;79.77
11692;BME280;33659;42.672;23.354;2023-06-14T05:50:05;69070.31;;;20.16;79.13
11692;BME280;33659;42.672;23.354;2023-06-14T05:52:32;69151.09;;;20.23;79.09
11692;BME280;33659;42.672;23.354;2023-06-14T05:54:59;69160.91;;;20.32;78.67
11692;BME280;33659;42.672;23.354;2023-06-14T05:57:26;69165.81;;;20.37;77.87
11692;BME280;33659;42.672;23.354;2023-06-14T05:59:54;69166.44;;;20.40;77.99
11692;BME280;33659;42.672;23.354;2023-06-14T06:02:21;69164.19;;;20.35;77.81
11692;BME280;33659;42.672;23.354;2023-06-14T06:04:48;69174.09;;;20.47;77.93
11692;BME280;33659;42.672;23.354;2023-06-14T06:07:15;69171.34;;;20.44;78.32
11692;BME280;33659;42.672;23.354;2023-06-14T06:09:41;69176.19;;;20.46;77.83
11692;BME280;33659;42.672;23.354;2023-06-14T06:12:08;69108.78;;;20.47;78.12
11692;BME280;33659;42.672;23.354;2023-06-14T06:14:35;69178.47;;;20.51;77.36
11692;BME280;33659;42.672;23.354;2023-06-14T06:17:04;69109.44;;;20.50;77.37
11692;BME280;33659;42.672;23.354;2023-06-14T06:19:31;69181.63;;;20.51;77.24
11692;BME280;33659;42.672;23.354;2023-06-14T06:21:58;69181.16;;;20.53;77.00
11692;BME280;33659;42.672;23.354;2023-06-14T06:24:25;69184.91;;;20.54;76.88
11692;BME280;33659;42.672;23.354;2023-06-14T06:26:52;69181.09;;;20.51;76.88
11692;BME280;33659;42.672;23.354;2023-06-14T06:29:19;69186.63;;;20.59;76.17
11692;BME280;33659;42.672;23.354;2023-06-14T06:31:46;69182.72;;;20.52;75.98
11692;BME280;33659;42.672;23.354;2023-06-14T06:34:14;69105.06;;;20.46;76.63
11692;BME280;33659;42.672;23.354;2023-06-14T06:36:40;69099.59;;;20.41;76.30
11692;BME280;33659;42.672;23.354;2023-06-14T06:39:07;69166.91;;;20.38;76.99
11692;BME280;33659;42.672;23.354;2023-06-14T06:41:35;69160.91;;;20.32;77.10
11692;BME280;33659;42.672;23.354;2023-06-14T06:44:03;69157.72;;;20.32;77.31
11692;BME280;33659;42.672;23.354;2023-06-14T06:46:30;69157.19;;;20.31;77.16
11692;BME280;33659;42.672;23.354;2023-06-14T06:48:57;69147.81;;;20.20;77.15
11692;BME280;33659;42.672;23.354;2023-06-14T06:51:25;69150.09;;;20.24;77.82
11692;BME280;33659;42.672;23.354;2023-06-14T06:53:52;69160.28;;;20.29;77.81
11692;BME280;33659;42.672;23.354;2023-06-14T06:56:19;69161.44;;;20.33;77.88
11692;BME280;33659;42.672;23.354;2023-06-14T06:58:47;69162.00;;;20.33;77.48
11692;BME280;33659;42.672;23.354;2023-06-14T07:01:13;69092.00;;;20.34;77.29
11692;BME280;33659;42.672;23.354;2023-06-14T07:03:41;69163.63;;;20.35;77.47
11692;BME280;33659;42.672;23.354;2023-06-14T07:06:08;69168.44;;;20.37;77.42
11692;BME280;33659;42.672;23.354;2023-06-14T07:08:36;69171.81;;;20.42;77.10
11692;BME280;33659;42.672;23.354;2023-06-14T07:11:04;69182.63;;;20.50;76.89
11692;BME280;33659;42.672;23.354;2023-06-14T07:13:31;69183.25;;;20.53;76.16
11692;BME280;33659;42.672;23.354;2023-06-14T07:15:59;69178.81;;;20.46;75.80
11692;BME280;33659;42.672;23.354;2023-06-14T07:18:26;69107.81;;;20.49;76.49
11692;BME280;33659;42.672;23.354;2023-06-14T07:20:53;69107.81;;;20.49;76.19
11692;BME280;33659;42.672;23.354;2023-06-14T07:23:20;69118.06;;;20.56;76.19
11692;BME280;33659;42.672;23.354;2023-06-14T07:25:48;69127.84;;;20.65;76.11
11692;BME280;33659;42.672;23.354;2023-06-14T07:28:16;69207.81;;;20.76;76.26
11692;BME280;33659;42.672;23.354;2023-06-14T07:30:43;69215.44;;;20.83;76.58
11692;BME280;33659;42.672;23.354;2023-06-14T07:33:09;69240.50;;;21.06;76.11
11692;BME280;33659;42.672;23.354;2023-06-14T07:35:37;69189.94;;;21.23;72.62
11692;BME280;33659;42.672;23.354;2023-06-14T07:38:04;69182.97;;;21.19;70.79
11692;BME280;33659;42.672;23.354;2023-06-14T07:40:31;69242.69;;;21.08;71.17
11692;BME280;33659;42.672;23.354;2023-06-14T07:42:59;69233.97;;;21.00;72.07
11692;BME280;33659;42.672;23.354;2023-06-14T07:45:26;69241.59;;;21.07;72.86
11692;BME280;33659;42.672;23.354;2023-06-14T07:47:53;69262.31;;;21.27;73.09
11692;BME280;33659;42.672;23.354;2023-06-14T07:50:20;69212.94;;;21.47;72.54
11692;BME280;33659;42.672;23.354;2023-06-14T07:52:47;69233.63;;;21.67;72.40
11692;BME280;33659;42.672;23.354;2023-06-14T07:55:14;69322.78;;;21.81;71.44
11692;BME280;33659;42.672;23.354;2023-06-14T07:57:41;69252.16;;;21.84;69.76
11692;BME280;33659;42.672;23.354;2023-06-14T08:00:12;69317.31;;;21.76;69.82
11692;BME280;33659;42.672;23.354;2023-06-14T08:02:41;69239.09;;;21.72;70.81
11692;BME280;33659;42.672;23.354;2023-06-14T08:05:09;69319.06;;;21.80;70.51
11692;BME280;33659;42.672;23.354;2023-06-14T08:07:37;69248.34;;;21.80;71.24
11692;BME280;33659;42.672;23.354;2023-06-14T08:10:04;69247.34;;;21.82;71.32
11692;BME280;33659;42.672;23.354;2023-06-14T08:12:31;69314.13;;;21.75;71.71
11692;BME280;33659;42.672;23.354;2023-06-14T08:14:59;69309.78;;;21.71;71.34
11692;BME280;33659;42.672;23.354;2023-06-14T08:17:27;69240.19;;;21.73;71.80
11692;BME280;33659;42.672;23.354;2023-06-14T08:19:54;69249.34;;;21.79;70.80
11692;BME280;33659;42.672;23.354;2023-06-14T08:22:22;69323.88;;;21.82;70.58
11692;BME280;33659;42.672;23.354;2023-06-14T08:24:50;69322.88;;;21.83;70.74
11692;BME280;33659;42.672;23.354;2023-06-14T08:27:18;69252.16;;;21.84;70.25
11692;BME280;33659;42.672;23.354;2023-06-14T08:29:45;69332.69;;;21.93;69.83
11692;BME280;33659;42.672;23.354;2023-06-14T08:32:12;69267.41;;;21.98;69.08
11692;BME280;33659;42.672;23.354;2023-06-14T08:34:40;69341.97;;;22.01;68.65
11692;BME280;33659;42.672;23.354;2023-06-14T08:37:07;69277.75;;;22.08;68.20
11692;BME280;33659;42.672;23.354;2023-06-14T08:39:33;69361.00;;;22.16;67.25
11692;BME280;33659;42.672;23.354;2023-06-14T08:42:01;69288.16;;;22.17;66.99
11692;BME280;33659;42.672;23.354;2023-06-14T08:44:28;69373.00;;;22.28;66.72
11692;BME280;33659;42.672;23.354;2023-06-14T08:46:56;69375.19;;;22.30;66.88
11692;BME280;33659;42.672;23.354;2023-06-14T08:49:25;69308.88;;;22.37;66.42
11692;BME280;33659;42.672;23.354;2023-06-14T08:51:57;69318.13;;;22.46;65.77
11692;BME280;33659;42.672;23.354;2023-06-14T08:54:25;69392.75;;;22.49;65.03
11692;BME280;33659;42.672;23.354;2023-06-14T08:56:56;69324.50;;;22.47;65.12
11692;BME280;33659;42.672;23.354;2023-06-14T08:59:24;69392.75;;;22.49;65.29
11692;BME280;33659;42.672;23.354;2023-06-14T09:01:52;69323.66;;;22.53;65.37
11692;BME280;33659;42.672;23.354;2023-06-14T09:04:20;69324.28;;;22.56;65.15
11692;BME280;33659;42.672;23.354;2023-06-14T09:06:47;69393.28;;;22.49;65.33
11692;BME280;33659;42.672;23.354;2023-06-14T09:09:19;69311.50;;;22.37;65.61
11692;BME280;33659;42.672;23.354;2023-06-14T09:11:46;69287.06;;;22.16;66.02
11692;BME280;33659;42.672;23.354;2023-06-14T09:14:13;69377.44;;;22.34;66.17
11692;BME280;33659;42.672;23.354;2023-06-14T09:16:40;69303.41;;;22.32;65.14
11692;BME280;33659;42.672;23.354;2023-06-14T09:19:07;69368.72;;;22.26;66.22
11692;BME280;33659;42.672;23.354;2023-06-14T09:21:34;69373.63;;;22.31;67.05
11692;BME280;33659;42.672;23.354;2023-06-14T09:24:03;69315.41;;;22.43;66.40
11692;BME280;33659;42.672;23.354;2023-06-14T09:26:31;69329.41;;;22.51;65.97
11692;BME280;33659;42.672;23.354;2023-06-14T09:28:58;69330.84;;;22.62;65.59
11692;BME280;33659;42.672;23.354;2023-06-14T09:31:25;69331.22;;;22.58;63.96
11692;BME280;33659;42.672;23.354;2023-06-14T09:33:57;69427.66;;;22.81;65.54
11692;BME280;33659;42.672;23.354;2023-06-14T09:36:25;69442.88;;;22.93;66.04
11692;BME280;33659;42.672;23.354;2023-06-14T09:38:53;69454.88;;;23.04;63.92
11692;BME280;33659;42.672;23.354;2023-06-14T09:41:20;69462.53;;;23.11;63.76
11692;BME280;33659;42.672;23.354;2023-06-14T09:43:48;69463.78;;;23.17;63.15
11692;BME280;33659;42.672;23.354;2023-06-14T09:46:15;69475.72;;;23.26;62.36
11692;BME280;33659;42.672;23.354;2023-06-14T09:48:42;69403.66;;;23.23;62.10
11692;BME280;33659;42.672;23.354;2023-06-14T09:51:10;69396.09;;;23.18;62.24
11692;BME280;33659;42.672;23.354;2023-06-14T09:53:41;69399.31;;;23.19;62.29
11692;BME280;33659;42.672;23.354;2023-06-14T09:56:10;69396.56;;;23.16;61.66
11692;BME280;33659;42.672;23.354;2023-06-14T09:58:39;69467.53;;;23.18;61.66
11692;BME280;33659;42.672;23.354;2023-06-14T10:01:08;69454.88;;;23.04;62.10
11692;BME280;33659;42.672;23.354;2023-06-14T10:03:39;69400.41;;;23.20;61.69
11692;BME280;33659;42.672;23.354;2023-06-14T10:06:08;69406.41;;;23.26;61.85
11692;BME280;33659;42.672;23.354;2023-06-14T10:08:36;69483.28;;;23.31;62.29
11692;BME280;33659;42.672;23.354;2023-06-14T10:11:03;69402.66;;;23.24;61.82
11692;BME280;33659;42.672;23.354;2023-06-14T10:13:32;69403.13;;;23.22;61.73
11692;BME280;33659;42.672;23.354;2023-06-14T10:16:06;69403.13;;;23.22;62.35
11692;BME280;33659;42.672;23.354;2023-06-14T10:18:41;69401.19;;;23.28;61.30
11692;BME280;33659;42.672;23.354;2023-06-14T10:21:18;69412.38;;;23.31;61.17
11692;BME280;33659;42.672;23.354;2023-06-14T10:23:49;69407.50;;;23.27;61.19
11692;BME280;33659;42.672;23.354;2023-06-14T10:26:20;69396.66;;;23.19;61.42
11692;BME280;33659;42.672;23.354;2023-06-14T10:28:57;69391.91;;;23.19;61.00
11692;BME280;33659;42.672;23.354;2023-06-14T10:31:40;69396.09;;;23.18;60.70
11692;BME280;33659;42.672;23.354;2023-06-14T10:34:09;69464.25;;;23.15;60.22
11692;BME280;33659;42.672;23.354;2023-06-14T10:36:36;69392.84;;;23.15;60.85
11692;BME280;33659;42.672;23.354;2023-06-14T10:39:07;69396.09;;;23.18;60.88
11692;BME280;33659;42.672;23.354;2023-06-14T10:41:35;69392.84;;;23.15;60.60
11692;BME280;33659;42.672;23.354;2023-06-14T10:44:31;69394.47;;;23.17;62.01
11692;BME280;33659;42.672;23.354;2023-06-14T10:46:59;69470.34;;;23.23;61.49
11692;BME280;33659;42.672;23.354;2023-06-14T10:49:38;69482.28;;;23.32;61.09
11692;BME280;33659;42.672;23.354;2023-06-14T10:52:08;69421.75;;;23.42;60.90
11692;BME280;33659;42.672;23.354;2023-06-14T10:55:05;69486.63;;;23.36;60.22
11692;BME280;33659;42.672;23.354;2023-06-14T10:57:35;69511.69;;;23.57;60.04
11692;BME280;33659;42.672;23.354;2023-06-14T11:00:03;69440.38;;;23.62;59.70
11692;BME280;33659;42.672;23.354;2023-06-14T11:03:14;69521.53;;;23.66;60.31
11692;BME280;33659;42.672;23.354;2023-06-14T11:05:50;69531.91;;;23.76;59.88
11692;BME280;33659;42.672;23.354;2023-06-14T11:11:08;69482.78;;;23.97;60.13
11692;BME280;33659;42.672;23.354;2023-06-14T11:13:37;69474.31;;;23.96;59.32
11692;BME280;33659;42.672;23.354;2023-06-14T11:16:10;69486.69;;;24.03;58.23
11692;BME280;33659;42.672;23.354;2023-06-14T11:18:38;69568.41;;;24.08;57.91
11692;BME280;33659;42.672;23.354;2023-06-14T11:21:06;69496.88;;;24.08;58.14
11692;BME280;33659;42.672;23.354;2023-06-14T11:23:34;69497.06;;;24.13;57.36
11692;BME280;33659;42.672;23.354;2023-06-14T11:26:00;69508.97;;;24.21;57.15
11692;BME280;33659;42.672;23.354;2023-06-14T11:28:36;69521.63;;;24.36;57.35
11692;BME280;33659;42.672;23.354;2023-06-14T11:31:03;69539.03;;;24.49;56.15
11692;BME280;33659;42.672;23.354;2023-06-14T11:33:30;69545.03;;;24.55;56.72
11692;BME280;33659;42.672;23.354;2023-06-14T11:35:57;69551.59;;;24.61;56.38
11692;BME280;33659;42.672;23.354;2023-06-14T11:38:26;69559.22;;;24.68;55.86
11692;BME280;33659;42.672;23.354;2023-06-14T11:40:52;69553.13;;;24.77;55.73
11692;BME280;33659;42.672;23.354;2023-06-14T11:43:19;69573.31;;;24.79;54.31
11692;BME280;33659;42.672;23.354;2023-06-14T11:45:48;69556.72;;;24.73;55.78
11692;BME280;33659;42.672;23.354;2023-06-14T11:48:15;69565.31;;;24.76;55.59
11692;BME280;33659;42.672;23.354;2023-06-14T11:50:42;69653.22;;;24.89;54.71
11692;BME280;33659;42.672;23.354;2023-06-14T11:53:09;69595.88;;;25.05;54.27
11692;BME280;33659;42.672;23.354;2023-06-14T11:55:38;69678.31;;;25.10;53.79
11692;BME280;33659;42.672;23.354;2023-06-14T11:58:07;69596.34;;;25.03;53.70
11692;BME280;33659;42.672;23.354;2023-06-14T12:00:35;69603.41;;;25.07;53.21
11692;BME280;33659;42.672;23.354;2023-06-14T12:03:02;69590.34;;;24.97;53.53
11692;BME280;33659;42.672;23.354;2023-06-14T12:05:29;69653.75;;;24.90;53.78
11692;BME280;33659;42.672;23.354;2023-06-14T12:07:59;69586.81;;;25.04;52.83
11692;BME280;33659;42.672;23.354;2023-06-14T12:10:27;69582.47;;;25.00;52.52
11692;BME280;33659;42.672;23.354;2023-06-14T12:12:58;69584.41;;;24.94;53.50
11692;BME280;33659;42.672;23.354;2023-06-14T12:15:28;69585.97;;;24.93;54.57
11692;BME280;33659;42.672;23.354;2023-06-14T12:17:55;69579.66;;;24.95;54.63
11692;BME280;33659;42.672;23.354;2023-06-14T12:20:22;69568.88;;;24.90;54.50
11692;BME280;33659;42.672;23.354;2023-06-14T12:22:53;69582.06;;;24.87;54.54
11692;BME280;33659;42.672;23.354;2023-06-14T12:25:27;69634.09;;;24.71;55.32
11692;BME280;33659;42.672;23.354;2023-06-14T12:27:58;69538.66;;;24.54;56.08
11692;BME280;33659;42.672;23.354;2023-06-14T12:30:25;69609.03;;;24.50;55.90
11692;BME280;33659;42.672;23.354;2023-06-14T12:32:51;69600.75;;;24.40;56.01
11692;BME280;33659;42.672;23.354;2023-06-14T12:35:18;69593.09;;;24.33;56.36
11692;BME280;33659;42.672;23.354;2023-06-14T12:37:45;69517.19;;;24.29;56.36
11692;BME280;33659;42.672;23.354;2023-06-14T12:40:12;69575.06;;;24.16;56.51
11692;BME280;33659;42.672;23.354;2023-06-14T12:42:39;69503.44;;;24.14;56.24
11692;BME280;33659;42.672;23.354;2023-06-14T12:45:08;69567.97;;;24.10;56.36
11692;BME280;33659;42.672;23.354;2023-06-14T12:47:36;69488.25;;;24.02;56.58
11692;BME280;33659;42.672;23.354;2023-06-14T12:50:03;69553.75;;;23.96;57.27
11692;BME280;33659;42.672;23.354;2023-06-14T12:52:30;69550.47;;;23.93;57.58
11692;BME280;33659;42.672;23.354;2023-06-14T12:54:57;69472.41;;;23.87;56.42
11692;BME280;33659;42.672;23.354;2023-06-14T12:57:23;69468.63;;;23.84;56.92